sensor_id;sensor_type;location;lat;lon;timestamp;P1;durP1;ratioP1;P2;durP2;ratioP2
10761;SDS011;5433;50.862;4.320;2024-01-15T00:02:13;26.08;;;14.63;;
10761;SDS011;5433;50.862;4.320;2024-01-15T00:04:39;28.00;;;14.40;;
10761;SDS011;5433;50.862;4.320;2024-01-15T00:07:09;24.70;;;14.05;;
10761;SDS011;5433;50.862;4.320;2024-01-15T00:09:35;21.73;;;11.65;;
10761;SDS011;5433;50.862;4.320;2024-01-15T00:12:01;26.40;;;13.63;;
10761;SDS011;5433;50.862;4.320;2024-01-15T00:14:27;24.02;;;12.68;;
10761;SDS011;5433;50.862;4.320;2024-01-15T00:16:54;26.13;;;12.90;;
10761;SDS011;5433;50.862;4.320;2024-01-15T00:19:23;22.55;;;12.60;;
10761;SDS011;5433;50.862;4.320;2024-01-15T00:21:50;22.45;;;12.30;;
10761;SDS011;5433;50.862;4.320;2024-01-15T00:24:16;20.85;;;11.35;;
10761;SDS011;5433;50.862;4.320;2024-01-15T00:26:42;21.77;;;11.52;;
10761;SDS011;5433;50.862;4.320;2024-01-15T00:29:08;19.60;;;11.05;;
10761;SDS011;5433;50.862;4.320;2024-01-15T00:31:34;20.38;;;11.00;;
10761;SDS011;5433;50.862;4.320;2024-01-15T00:34:00;21.80;;;11.68;;
10761;SDS011;5433;50.862;4.320;2024-01-15T00:36:26;20.30;;;10.52;;
10761;SDS011;5433;50.862;4.320;2024-01-15T00:38:52;18.85;;;11.07;;
10761;SDS011;5433;50.862;4.320;2024-01-15T00:41:19;19.85;;;10.57;;
10761;SDS011;5433;50.862;4.320;2024-01-15T00:43:45;16.23;;;10.13;;
10761;SDS011;5433;50.862;4.320;2024-01-15T00:46:11;18.35;;;10.20;;
10761;SDS011;5433;50.862;4.320;2024-01-15T00:48:37;17.27;;;10.13;;
10761;SDS011;5433;50.862;4.320;2024-01-15T00:51:04;14.13;;;8.65;;
10761;SDS011;5433;50.862;4.320;2024-01-15T00:53:30;14.40;;;8.25;;
10761;SDS011;5433;50.862;4.320;2024-01-15T00:55:56;13.73;;;7.75;;
10761;SDS011;5433;50.862;4.320;2024-01-15T00:58:22;11.95;;;7.47;;
10761;SDS011;5433;50.862;4.320;2024-01-15T01:00:48;11.38;;;7.40;;
10761;SDS011;5433;50.862;4.320;2024-01-15T01:03:14;10.15;;;6.75;;
10761;SDS011;5433;50.862;4.320;2024-01-15T01:05:40;11.13;;;6.43;;
10761;SDS011;5433;50.862;4.320;2024-01-15T01:08:06;10.10;;;6.50;;
10761;SDS011;5433;50.862;4.320;2024-01-15T01:10:32;12.65;;;6.40;;
10761;SDS011;5433;50.862;4.320;2024-01-15T01:12:58;10.10;;;5.72;;
10761;SDS011;5433;50.862;4.320;2024-01-15T01:15:24;8.35;;;5.88;;
10761;SDS011;5433;50.862;4.320;2024-01-15T01:17:50;7.75;;;5.85;;
10761;SDS011;5433;50.862;4.320;2024-01-15T01:20:16;7.47;;;5.53;;
10761;SDS011;5433;50.862;4.320;2024-01-15T01:22:42;7.78;;;5.82;;
10761;SDS011;5433;50.862;4.320;2024-01-15T01:25:08;7.82;;;5.28;;
10761;SDS011;5433;50.862;4.320;2024-01-15T01:27:34;7.55;;;4.82;;
10761;SDS011;5433;50.862;4.320;2024-01-15T01:30:00;7.70;;;4.70;;
10761;SDS011;5433;50.862;4.320;2024-01-15T01:32:27;5.85;;;4.55;;
10761;SDS011;5433;50.862;4.320;2024-01-15T01:34:53;6.30;;;4.68;;
10761;SDS011;5433;50.862;4.320;2024-01-15T01:37:19;6.07;;;3.85;;
10761;SDS011;5433;50.862;4.320;2024-01-15T01:39:48;5.55;;;4.10;;
10761;SDS011;5433;50.862;4.320;2024-01-15T01:42:15;7.80;;;4.80;;
10761;SDS011;5433;50.862;4.320;2024-01-15T01:44:41;6.65;;;3.88;;
10761;SDS011;5433;50.862;4.320;2024-01-15T01:47:10;4.50;;;4.05;;
10761;SDS011;5433;50.862;4.320;2024-01-15T01:49:36;5.88;;;3.60;;
10761;SDS011;5433;50.862;4.320;2024-01-15T01:52:03;6.60;;;4.10;;
10761;SDS011;5433;50.862;4.320;2024-01-15T01:54:31;8.52;;;3.63;;
10761;SDS011;5433;50.862;4.320;2024-01-15T01:56:58;5.93;;;3.67;;
10761;SDS011;5433;50.862;4.320;2024-01-15T01:59:27;6.15;;;3.65;;
10761;SDS011;5433;50.862;4.320;2024-01-15T02:01:56;5.38;;;3.60;;
10761;SDS011;5433;50.862;4.320;2024-01-15T02:04:23;4.43;;;3.28;;
10761;SDS011;5433;50.862;4.320;2024-01-15T02:06:49;4.40;;;3.30;;
10761;SDS011;5433;50.862;4.320;2024-01-15T02:09:15;5.32;;;3.30;;
10761;SDS011;5433;50.862;4.320;2024-01-15T02:11:42;4.43;;;2.97;;
10761;SDS011;5433;50.862;4.320;2024-01-15T02:14:08;4.97;;;3.30;;
10761;SDS011;5433;50.862;4.320;2024-01-15T02:16:35;4.78;;;2.80;;
10761;SDS011;5433;50.862;4.320;2024-01-15T02:19:01;4.47;;;3.15;;
10761;SDS011;5433;50.862;4.320;2024-01-15T02:21:27;4.72;;;2.67;;
10761;SDS011;5433;50.862;4.320;2024-01-15T02:23:54;6.00;;;2.90;;
10761;SDS011;5433;50.862;4.320;2024-01-15T02:26:20;4.22;;;2.80;;
10761;SDS011;5433;50.862;4.320;2024-01-15T02:28:46;4.35;;;2.95;;
10761;SDS011;5433;50.862;4.320;2024-01-15T02:31:12;3.50;;;2.80;;
10761;SDS011;5433;50.862;4.320;2024-01-15T02:33:38;4.93;;;3.05;;
10761;SDS011;5433;50.862;4.320;2024-01-15T02:36:05;4.90;;;2.78;;
10761;SDS011;5433;50.862;4.320;2024-01-15T02:38:31;6.18;;;2.90;;
10761;SDS011;5433;50.862;4.320;2024-01-15T02:40:57;5.57;;;2.65;;
10761;SDS011;5433;50.862;4.320;2024-01-15T02:43:23;4.93;;;3.05;;
10761;SDS011;5433;50.862;4.320;2024-01-15T02:45:49;4.05;;;2.92;;
10761;SDS011;5433;50.862;4.320;2024-01-15T02:48:15;4.43;;;3.35;;
10761;SDS011;5433;50.862;4.320;2024-01-15T02:50:41;6.63;;;3.45;;
10761;SDS011;5433;50.862;4.320;2024-01-15T02:53:07;6.13;;;3.88;;
10761;SDS011;5433;50.862;4.320;2024-01-15T02:55:33;6.45;;;4.25;;
10761;SDS011;5433;50.862;4.320;2024-01-15T02:57:59;6.40;;;4.32;;
10761;SDS011;5433;50.862;4.320;2024-01-15T03:00:25;8.52;;;5.20;;
10761;SDS011;5433;50.862;4.320;2024-01-15T03:02:51;10.02;;;5.50;;
10761;SDS011;5433;50.862;4.320;2024-01-15T03:05:17;9.55;;;5.85;;
10761;SDS011;5433;50.862;4.320;2024-01-15T03:07:43;10.05;;;6.13;;
10761;SDS011;5433;50.862;4.320;2024-01-15T03:10:09;9.38;;;6.38;;
10761;SDS011;5433;50.862;4.320;2024-01-15T03:12:35;9.98;;;6.45;;
10761;SDS011;5433;50.862;4.320;2024-01-15T03:15:01;10.50;;;7.13;;
10761;SDS011;5433;50.862;4.320;2024-01-15T03:17:27;9.32;;;6.53;;
10761;SDS011;5433;50.862;4.320;2024-01-15T03:19:53;10.40;;;7.00;;
10761;SDS011;5433;50.862;4.320;2024-01-15T03:22:21;10.95;;;7.00;;
10761;SDS011;5433;50.862;4.320;2024-01-15T03:24:47;11.35;;;7.05;;
10761;SDS011;5433;50.862;4.320;2024-01-15T03:27:12;10.65;;;7.13;;
10761;SDS011;5433;50.862;4.320;2024-01-15T03:29:39;11.93;;;7.75;;
10761;SDS011;5433;50.862;4.320;2024-01-15T03:32:05;10.52;;;7.22;;
10761;SDS011;5433;50.862;4.320;2024-01-15T03:34:31;10.60;;;7.47;;
10761;SDS011;5433;50.862;4.320;2024-01-15T03:36:57;13.73;;;8.00;;
10761;SDS011;5433;50.862;4.320;2024-01-15T03:39:24;10.57;;;7.80;;
10761;SDS011;5433;50.862;4.320;2024-01-15T03:41:50;11.60;;;7.88;;
10761;SDS011;5433;50.862;4.320;2024-01-15T03:44:16;11.43;;;8.13;;
10761;SDS011;5433;50.862;4.320;2024-01-15T03:46:42;11.43;;;8.20;;
10761;SDS011;5433;50.862;4.320;2024-01-15T03:49:08;13.40;;;8.40;;
10761;SDS011;5433;50.862;4.320;2024-01-15T03:51:34;11.95;;;7.97;;
10761;SDS011;5433;50.862;4.320;2024-01-15T03:54:00;14.32;;;8.73;;
10761;SDS011;5433;50.862;4.320;2024-01-15T03:56:26;14.38;;;8.82;;
10761;SDS011;5433;50.862;4.320;2024-01-15T03:58:52;18.15;;;9.73;;
10761;SDS011;5433;50.862;4.320;2024-01-15T04:01:18;15.73;;;9.27;;
10761;SDS011;5433;50.862;4.320;2024-01-15T04:03:43;18.25;;;10.27;;
10761;SDS011;5433;50.862;4.320;2024-01-15T04:06:09;17.23;;;10.35;;
10761;SDS011;5433;50.862;4.320;2024-01-15T04:08:35;17.55;;;10.93;;
10761;SDS011;5433;50.862;4.320;2024-01-15T04:11:01;18.15;;;11.13;;
10761;SDS011;5433;50.862;4.320;2024-01-15T04:13:27;18.88;;;11.60;;
10761;SDS011;5433;50.862;4.320;2024-01-15T04:15:53;16.45;;;10.93;;
10761;SDS011;5433;50.862;4.320;2024-01-15T04:18:19;17.40;;;10.65;;
10761;SDS011;5433;50.862;4.320;2024-01-15T04:20:45;21.00;;;11.68;;
10761;SDS011;5433;50.862;4.320;2024-01-15T04:23:11;17.67;;;11.27;;
10761;SDS011;5433;50.862;4.320;2024-01-15T04:25:37;17.25;;;11.35;;
10761;SDS011;5433;50.862;4.320;2024-01-15T04:28:07;18.20;;;11.43;;
10761;SDS011;5433;50.862;4.320;2024-01-15T04:30:33;19.17;;;11.55;;
10761;SDS011;5433;50.862;4.320;2024-01-15T04:32:59;16.52;;;10.98;;
10761;SDS011;5433;50.862;4.320;2024-01-15T04:35:25;16.50;;;10.02;;
10761;SDS011;5433;50.862;4.320;2024-01-15T04:37:51;17.13;;;9.52;;
10761;SDS011;5433;50.862;4.320;2024-01-15T04:40:17;14.68;;;8.98;;
10761;SDS011;5433;50.862;4.320;2024-01-15T04:42:43;15.10;;;7.40;;
10761;SDS011;5433;50.862;4.320;2024-01-15T04:45:11;10.73;;;6.30;;
10761;SDS011;5433;50.862;4.320;2024-01-15T04:50:21;8.57;;;5.72;;
10761;SDS011;5433;50.862;4.320;2024-01-15T04:52:47;10.35;;;5.72;;
10761;SDS011;5433;50.862;4.320;2024-01-15T04:55:13;9.13;;;5.40;;
10761;SDS011;5433;50.862;4.320;2024-01-15T04:57:40;7.00;;;4.68;;
10761;SDS011;5433;50.862;4.320;2024-01-15T05:00:06;8.43;;;4.13;;
10761;SDS011;5433;50.862;4.320;2024-01-15T05:02:32;8.05;;;3.95;;
10761;SDS011;5433;50.862;4.320;2024-01-15T05:04:58;6.55;;;3.80;;
10761;SDS011;5433;50.862;4.320;2024-01-15T05:07:24;6.03;;;3.38;;
10761;SDS011;5433;50.862;4.320;2024-01-15T05:09:50;7.10;;;3.38;;
10761;SDS011;5433;50.862;4.320;2024-01-15T05:12:16;6.70;;;3.20;;
10761;SDS011;5433;50.862;4.320;2024-01-15T05:14:42;5.47;;;2.90;;
10761;SDS011;5433;50.862;4.320;2024-01-15T05:17:08;3.92;;;2.60;;
10761;SDS011;5433;50.862;4.320;2024-01-15T05:19:34;6.45;;;2.40;;
10761;SDS011;5433;50.862;4.320;2024-01-15T05:22:00;5.95;;;2.20;;
10761;SDS011;5433;50.862;4.320;2024-01-15T05:24:26;3.13;;;2.30;;
10761;SDS011;5433;50.862;4.320;2024-01-15T05:26:52;4.25;;;2.20;;
10761;SDS011;5433;50.862;4.320;2024-01-15T05:29:18;4.65;;;2.22;;
10761;SDS011;5433;50.862;4.320;2024-01-15T05:31:44;3.45;;;2.47;;
10761;SDS011;5433;50.862;4.320;2024-01-15T05:34:10;5.95;;;2.05;;
10761;SDS011;5433;50.862;4.320;2024-01-15T05:36:36;3.55;;;2.15;;
10761;SDS011;5433;50.862;4.320;2024-01-15T05:39:02;4.07;;;2.13;;
10761;SDS011;5433;50.862;4.320;2024-01-15T05:41:28;3.55;;;1.85;;
10761;SDS011;5433;50.862;4.320;2024-01-15T05:43:54;4.72;;;2.00;;
10761;SDS011;5433;50.862;4.320;2024-01-15T05:46:20;4.38;;;1.90;;
10761;SDS011;5433;50.862;4.320;2024-01-15T05:48:46;4.07;;;1.77;;
10761;SDS011;5433;50.862;4.320;2024-01-15T05:51:12;5.03;;;1.90;;
10761;SDS011;5433;50.862;4.320;2024-01-15T05:53:38;3.72;;;1.73;;
10761;SDS011;5433;50.862;4.320;2024-01-15T05:56:06;4.20;;;1.42;;
10761;SDS011;5433;50.862;4.320;2024-01-15T05:58:32;4.68;;;1.60;;
10761;SDS011;5433;50.862;4.320;2024-01-15T06:00:58;6.55;;;1.42;;
10761;SDS011;5433;50.862;4.320;2024-01-15T06:03:24;3.47;;;1.40;;
10761;SDS011;5433;50.862;4.320;2024-01-15T06:05:50;3.05;;;1.40;;
10761;SDS011;5433;50.862;4.320;2024-01-15T06:08:16;2.20;;;1.20;;
10761;SDS011;5433;50.862;4.320;2024-01-15T06:10:43;5.07;;;1.52;;
10761;SDS011;5433;50.862;4.320;2024-01-15T06:13:09;6.60;;;1.42;;
10761;SDS011;5433;50.862;4.320;2024-01-15T06:15:35;1.90;;;1.10;;
10761;SDS011;5433;50.862;4.320;2024-01-15T06:18:01;5.32;;;1.40;;
10761;SDS011;5433;50.862;4.320;2024-01-15T06:20:28;3.47;;;1.45;;
10761;SDS011;5433;50.862;4.320;2024-01-15T06:22:54;5.80;;;1.48;;
10761;SDS011;5433;50.862;4.320;2024-01-15T06:25:20;5.10;;;1.60;;
10761;SDS011;5433;50.862;4.320;2024-01-15T06:27:46;3.60;;;1.40;;
10761;SDS011;5433;50.862;4.320;2024-01-15T06:30:12;4.25;;;1.40;;
10761;SDS011;5433;50.862;4.320;2024-01-15T06:32:38;4.78;;;1.75;;
10761;SDS011;5433;50.862;4.320;2024-01-15T06:35:04;4.25;;;1.50;;
10761;SDS011;5433;50.862;4.320;2024-01-15T06:37:30;3.22;;;1.55;;
10761;SDS011;5433;50.862;4.320;2024-01-15T06:39:57;2.53;;;1.50;;
10761;SDS011;5433;50.862;4.320;2024-01-15T06:42:24;4.03;;;1.85;;
10761;SDS011;5433;50.862;4.320;2024-01-15T06:44:51;4.65;;;2.08;;
10761;SDS011;5433;50.862;4.320;2024-01-15T06:47:17;6.38;;;1.80;;
10761;SDS011;5433;50.862;4.320;2024-01-15T06:49:46;4.88;;;1.80;;
10761;SDS011;5433;50.862;4.320;2024-01-15T06:52:12;6.30;;;1.90;;
10761;SDS011;5433;50.862;4.320;2024-01-15T06:54:38;4.88;;;2.25;;
10761;SDS011;5433;50.862;4.320;2024-01-15T06:57:04;4.95;;;2.17;;
10761;SDS011;5433;50.862;4.320;2024-01-15T06:59:31;3.78;;;1.80;;
10761;SDS011;5433;50.862;4.320;2024-01-15T07:01:57;6.10;;;2.42;;
10761;SDS011;5433;50.862;4.320;2024-01-15T07:04:24;6.70;;;2.20;;
10761;SDS011;5433;50.862;4.320;2024-01-15T07:06:50;4.80;;;2.03;;
10761;SDS011;5433;50.862;4.320;2024-01-15T07:09:16;5.80;;;1.90;;
10761;SDS011;5433;50.862;4.320;2024-01-15T07:11:45;2.45;;;1.60;;
10761;SDS011;5433;50.862;4.320;2024-01-15T07:14:11;6.60;;;1.90;;
10761;SDS011;5433;50.862;4.320;2024-01-15T07:16:37;10.80;;;2.20;;
10761;SDS011;5433;50.862;4.320;2024-01-15T07:19:04;7.88;;;2.10;;
10761;SDS011;5433;50.862;4.320;2024-01-15T07:21:30;4.57;;;2.10;;
10761;SDS011;5433;50.862;4.320;2024-01-15T07:23:56;5.57;;;2.00;;
10761;SDS011;5433;50.862;4.320;2024-01-15T07:26:22;6.10;;;2.20;;
10761;SDS011;5433;50.862;4.320;2024-01-15T07:28:48;4.53;;;2.10;;
10761;SDS011;5433;50.862;4.320;2024-01-15T07:31:15;6.28;;;2.42;;
10761;SDS011;5433;50.862;4.320;2024-01-15T07:33:41;7.47;;;2.60;;
10761;SDS011;5433;50.862;4.320;2024-01-15T07:36:07;4.25;;;2.35;;
10761;SDS011;5433;50.862;4.320;2024-01-15T07:38:33;6.72;;;2.80;;
10761;SDS011;5433;50.862;4.320;2024-01-15T07:40:59;7.32;;;2.95;;
10761;SDS011;5433;50.862;4.320;2024-01-15T07:43:25;5.70;;;2.70;;
10761;SDS011;5433;50.862;4.320;2024-01-15T07:45:52;5.18;;;3.40;;
10761;SDS011;5433;50.862;4.320;2024-01-15T07:48:18;4.78;;;3.30;;
10761;SDS011;5433;50.862;4.320;2024-01-15T07:50:45;9.35;;;3.22;;
10761;SDS011;5433;50.862;4.320;2024-01-15T07:53:11;8.48;;;3.50;;
10761;SDS011;5433;50.862;4.320;2024-01-15T07:55:37;5.03;;;3.20;;
10761;SDS011;5433;50.862;4.320;2024-01-15T07:58:03;6.97;;;3.25;;
10761;SDS011;5433;50.862;4.320;2024-01-15T08:00:29;6.05;;;3.50;;
10761;SDS011;5433;50.862;4.320;2024-01-15T08:02:55;5.50;;;3.25;;
10761;SDS011;5433;50.862;4.320;2024-01-15T08:05:21;10.35;;;3.50;;
10761;SDS011;5433;50.862;4.320;2024-01-15T08:07:47;6.30;;;3.55;;
10761;SDS011;5433;50.862;4.320;2024-01-15T08:10:13;9.00;;;3.45;;
10761;SDS011;5433;50.862;4.320;2024-01-15T08:12:39;8.18;;;3.90;;
10761;SDS011;5433;50.862;4.320;2024-01-15T08:15:05;7.78;;;3.25;;
10761;SDS011;5433;50.862;4.320;2024-01-15T08:17:31;14.82;;;3.22;;
10761;SDS011;5433;50.862;4.320;2024-01-15T08:19:57;5.72;;;2.92;;
10761;SDS011;5433;50.862;4.320;2024-01-15T08:22:25;6.38;;;3.15;;
10761;SDS011;5433;50.862;4.320;2024-01-15T08:24:51;6.10;;;2.83;;
10761;SDS011;5433;50.862;4.320;2024-01-15T08:27:18;5.82;;;2.65;;
10761;SDS011;5433;50.862;4.320;2024-01-15T08:29:45;4.88;;;2.85;;
10761;SDS011;5433;50.862;4.320;2024-01-15T08:32:11;6.13;;;2.38;;
10761;SDS011;5433;50.862;4.320;2024-01-15T08:34:40;7.43;;;2.65;;
10761;SDS011;5433;50.862;4.320;2024-01-15T08:37:06;5.63;;;2.97;;
10761;SDS011;5433;50.862;4.320;2024-01-15T08:39:33;8.55;;;2.60;;
10761;SDS011;5433;50.862;4.320;2024-01-15T08:41:58;4.97;;;2.40;;
10761;SDS011;5433;50.862;4.320;2024-01-15T08:44:24;6.97;;;2.47;;
10761;SDS011;5433;50.862;4.320;2024-01-15T08:46:50;9.88;;;2.03;;
10761;SDS011;5433;50.862;4.320;2024-01-15T08:49:16;5.68;;;2.20;;
10761;SDS011;5433;50.862;4.320;2024-01-15T08:51:42;3.88;;;1.73;;
10761;SDS011;5433;50.862;4.320;2024-01-15T08:54:08;6.13;;;1.88;;
10761;SDS011;5433;50.862;4.320;2024-01-15T08:56:34;6.70;;;2.28;;
10761;SDS011;5433;50.862;4.320;2024-01-15T08:59:00;7.75;;;2.10;;
10761;SDS011;5433;50.862;4.320;2024-01-15T09:01:28;7.07;;;2.00;;
10761;SDS011;5433;50.862;4.320;2024-01-15T09:03:54;6.68;;;2.17;;
10761;SDS011;5433;50.862;4.320;2024-01-15T09:06:20;6.13;;;2.00;;
10761;SDS011;5433;50.862;4.320;2024-01-15T09:08:46;5.15;;;2.15;;
10761;SDS011;5433;50.862;4.320;2024-01-15T09:11:12;7.63;;;2.08;;
10761;SDS011;5433;50.862;4.320;2024-01-15T09:13:38;5.90;;;2.13;;
10761;SDS011;5433;50.862;4.320;2024-01-15T09:16:04;4.20;;;1.70;;
10761;SDS011;5433;50.862;4.320;2024-01-15T09:18:30;3.45;;;1.50;;
10761;SDS011;5433;50.862;4.320;2024-01-15T09:20:56;5.40;;;1.95;;
10761;SDS011;5433;50.862;4.320;2024-01-15T09:23:22;6.28;;;2.10;;
10761;SDS011;5433;50.862;4.320;2024-01-15T09:25:48;6.15;;;1.77;;
10761;SDS011;5433;50.862;4.320;2024-01-15T09:28:14;6.88;;;1.80;;
10761;SDS011;5433;50.862;4.320;2024-01-15T09:30:40;6.60;;;1.98;;
10761;SDS011;5433;50.862;4.320;2024-01-15T09:33:06;6.88;;;1.70;;
10761;SDS011;5433;50.862;4.320;2024-01-15T09:35:32;5.03;;;1.63;;
10761;SDS011;5433;50.862;4.320;2024-01-15T09:37:59;4.72;;;1.60;;
10761;SDS011;5433;50.862;4.320;2024-01-15T09:40:25;5.00;;;1.70;;
10761;SDS011;5433;50.862;4.320;2024-01-15T09:42:54;6.20;;;1.73;;
10761;SDS011;5433;50.862;4.320;2024-01-15T09:45:21;6.00;;;1.60;;
10761;SDS011;5433;50.862;4.320;2024-01-15T09:47:56;4.70;;;1.73;;
10761;SDS011;5433;50.862;4.320;2024-01-15T09:50:22;5.03;;;1.73;;
10761;SDS011;5433;50.862;4.320;2024-01-15T09:52:48;7.50;;;1.80;;
10761;SDS011;5433;50.862;4.320;2024-01-15T09:55:15;5.68;;;1.75;;
10761;SDS011;5433;50.862;4.320;2024-01-15T09:57:41;6.60;;;1.70;;
10761;SDS011;5433;50.862;4.320;2024-01-15T10:00:07;4.22;;;1.40;;
10761;SDS011;5433;50.862;4.320;2024-01-15T10:02:35;6.30;;;1.70;;
10761;SDS011;5433;50.862;4.320;2024-01-15T10:05:02;5.70;;;1.85;;
10761;SDS011;5433;50.862;4.320;2024-01-15T10:07:28;4.00;;;1.35;;
10761;SDS011;5433;50.862;4.320;2024-01-15T10:09:55;5.25;;;1.67;;
10761;SDS011;5433;50.862;4.320;2024-01-15T10:12:21;4.00;;;1.30;;
10761;SDS011;5433;50.862;4.320;2024-01-15T10:14:48;6.25;;;1.70;;
10761;SDS011;5433;50.862;4.320;2024-01-15T10:17:14;4.20;;;1.60;;
10761;SDS011;5433;50.862;4.320;2024-01-15T10:19:40;5.28;;;1.65;;
10761;SDS011;5433;50.862;4.320;2024-01-15T10:22:08;8.23;;;1.90;;
10761;SDS011;5433;50.862;4.320;2024-01-15T10:24:35;5.30;;;1.58;;
10761;SDS011;5433;50.862;4.320;2024-01-15T10:27:08;5.60;;;1.67;;
10761;SDS011;5433;50.862;4.320;2024-01-15T10:29:35;4.28;;;1.80;;
10761;SDS011;5433;50.862;4.320;2024-01-15T10:32:01;9.18;;;2.30;;
10761;SDS011;5433;50.862;4.320;2024-01-15T10:34:27;8.07;;;2.00;;
10761;SDS011;5433;50.862;4.320;2024-01-15T10:36:53;6.30;;;1.80;;
10761;SDS011;5433;50.862;4.320;2024-01-15T10:39:22;4.15;;;1.50;;
10761;SDS011;5433;50.862;4.320;2024-01-15T10:41:49;4.88;;;1.63;;
10761;SDS011;5433;50.862;4.320;2024-01-15T10:44:18;4.00;;;1.60;;
10761;SDS011;5433;50.862;4.320;2024-01-15T10:46:44;6.05;;;1.58;;
10761;SDS011;5433;50.862;4.320;2024-01-15T10:49:11;3.97;;;1.30;;
10761;SDS011;5433;50.862;4.320;2024-01-15T10:51:37;4.47;;;1.50;;
10761;SDS011;5433;50.862;4.320;2024-01-15T10:54:06;5.15;;;1.67;;
10761;SDS011;5433;50.862;4.320;2024-01-15T10:56:36;3.58;;;1.60;;
10761;SDS011;5433;50.862;4.320;2024-01-15T10:59:02;7.22;;;1.55;;
10761;SDS011;5433;50.862;4.320;2024-01-15T11:01:30;4.43;;;1.88;;
10761;SDS011;5433;50.862;4.320;2024-01-15T11:03:56;6.43;;;1.15;;
10761;SDS011;5433;50.862;4.320;2024-01-15T11:06:23;7.57;;;1.77;;
10761;SDS011;5433;50.862;4.320;2024-01-15T11:08:50;3.85;;;1.45;;
10761;SDS011;5433;50.862;4.320;2024-01-15T11:11:16;3.60;;;1.40;;
10761;SDS011;5433;50.862;4.320;2024-01-15T11:13:49;4.93;;;1.58;;
10761;SDS011;5433;50.862;4.320;2024-01-15T11:16:17;5.93;;;1.60;;
10761;SDS011;5433;50.862;4.320;2024-01-15T11:18:55;4.70;;;1.73;;
10761;SDS011;5433;50.862;4.320;2024-01-15T11:21:27;4.82;;;1.58;;
10761;SDS011;5433;50.862;4.320;2024-01-15T11:24:01;3.17;;;1.38;;
10761;SDS011;5433;50.862;4.320;2024-01-15T11:28:54;4.22;;;1.10;;
10761;SDS011;5433;50.862;4.320;2024-01-15T11:31:25;4.45;;;1.27;;
10761;SDS011;5433;50.862;4.320;2024-01-15T11:33:51;3.88;;;1.20;;
10761;SDS011;5433;50.862;4.320;2024-01-15T11:41:59;6.03;;;1.50;;
10761;SDS011;5433;50.862;4.320;2024-01-15T11:44:26;7.05;;;1.45;;
10761;SDS011;5433;50.862;4.320;2024-01-15T11:47:02;6.95;;;1.27;;
10761;SDS011;5433;50.862;4.320;2024-01-15T11:52:15;3.92;;;1.30;;
10761;SDS011;5433;50.862;4.320;2024-01-15T11:54:43;4.75;;;1.20;;
10761;SDS011;5433;50.862;4.320;2024-01-15T11:57:12;5.75;;;1.58;;
10761;SDS011;5433;50.862;4.320;2024-01-15T11:59:42;3.50;;;1.00;;
10761;SDS011;5433;50.862;4.320;2024-01-15T12:02:08;6.75;;;1.45;;
10761;SDS011;5433;50.862;4.320;2024-01-15T12:04:36;7.00;;;1.20;;
10761;SDS011;5433;50.862;4.320;2024-01-15T12:07:04;6.78;;;1.30;;
10761;SDS011;5433;50.862;4.320;2024-01-15T12:09:30;8.85;;;1.70;;
10761;SDS011;5433;50.862;4.320;2024-01-15T12:12:02;3.78;;;1.20;;
10761;SDS011;5433;50.862;4.320;2024-01-15T12:14:31;5.72;;;1.20;;
10761;SDS011;5433;50.862;4.320;2024-01-15T12:16:57;6.68;;;1.40;;
10761;SDS011;5433;50.862;4.320;2024-01-15T12:19:23;5.20;;;1.40;;
10761;SDS011;5433;50.862;4.320;2024-01-15T12:21:52;4.93;;;1.38;;
10761;SDS011;5433;50.862;4.320;2024-01-15T12:24:18;4.45;;;1.20;;
10761;SDS011;5433;50.862;4.320;2024-01-15T12:26:44;5.38;;;1.30;;
10761;SDS011;5433;50.862;4.320;2024-01-15T12:29:10;5.38;;;1.20;;
10761;SDS011;5433;50.862;4.320;2024-01-15T12:31:37;3.38;;;1.13;;
10761;SDS011;5433;50.862;4.320;2024-01-15T12:34:23;5.72;;;1.27;;
10761;SDS011;5433;50.862;4.320;2024-01-15T12:36:49;4.95;;;1.20;;
10761;SDS011;5433;50.862;4.320;2024-01-15T12:39:15;5.00;;;1.20;;
10761;SDS011;5433;50.862;4.320;2024-01-15T12:41:41;6.07;;;1.20;;
10761;SDS011;5433;50.862;4.320;2024-01-15T12:44:07;7.03;;;1.38;;
10761;SDS011;5433;50.862;4.320;2024-01-15T12:46:33;5.97;;;1.40;;
10761;SDS011;5433;50.862;4.320;2024-01-15T12:51:28;6.82;;;1.25;;
10761;SDS011;5433;50.862;4.320;2024-01-15T12:53:54;14.77;;;4.22;;
10761;SDS011;5433;50.862;4.320;2024-01-15T12:56:20;9.02;;;1.50;;
10761;SDS011;5433;50.862;4.320;2024-01-15T12:58:46;5.00;;;1.30;;
10761;SDS011;5433;50.862;4.320;2024-01-15T13:01:12;4.78;;;1.42;;
10761;SDS011;5433;50.862;4.320;2024-01-15T13:03:38;7.90;;;1.65;;
10761;SDS011;5433;50.862;4.320;2024-01-15T13:06:04;6.70;;;1.40;;
10761;SDS011;5433;50.862;4.320;2024-01-15T13:08:30;7.32;;;1.48;;
10761;SDS011;5433;50.862;4.320;2024-01-15T13:10:56;5.72;;;1.40;;
10761;SDS011;5433;50.862;4.320;2024-01-15T13:13:22;5.82;;;1.42;;
10761;SDS011;5433;50.862;4.320;2024-01-15T13:15:48;4.18;;;1.25;;
10761;SDS011;5433;50.862;4.320;2024-01-15T13:18:14;6.43;;;1.48;;
10761;SDS011;5433;50.862;4.320;2024-01-15T13:20:41;6.50;;;1.42;;
10761;SDS011;5433;50.862;4.320;2024-01-15T13:23:07;5.03;;;1.42;;
10761;SDS011;5433;50.862;4.320;2024-01-15T13:25:40;8.35;;;2.00;;
10761;SDS011;5433;50.862;4.320;2024-01-15T13:28:06;5.80;;;1.40;;
10761;SDS011;5433;50.862;4.320;2024-01-15T13:30:33;6.35;;;1.60;;
10761;SDS011;5433;50.862;4.320;2024-01-15T13:32:59;6.47;;;1.75;;
10761;SDS011;5433;50.862;4.320;2024-01-15T13:35:29;4.82;;;1.52;;
10761;SDS011;5433;50.862;4.320;2024-01-15T13:37:55;4.25;;;1.20;;
10761;SDS011;5433;50.862;4.320;2024-01-15T13:40:21;4.95;;;1.23;;
10761;SDS011;5433;50.862;4.320;2024-01-15T13:42:47;8.50;;;1.60;;
10761;SDS011;5433;50.862;4.320;2024-01-15T13:45:13;5.32;;;1.45;;
10761;SDS011;5433;50.862;4.320;2024-01-15T13:47:40;4.45;;;1.38;;
10761;SDS011;5433;50.862;4.320;2024-01-15T13:50:08;10.65;;;1.77;;
10761;SDS011;5433;50.862;4.320;2024-01-15T13:52:34;4.00;;;1.50;;
10761;SDS011;5433;50.862;4.320;2024-01-15T13:55:01;4.13;;;1.50;;
10761;SDS011;5433;50.862;4.320;2024-01-15T13:57:27;5.40;;;1.38;;
10761;SDS011;5433;50.862;4.320;2024-01-15T13:59:53;4.88;;;1.52;;
10761;SDS011;5433;50.862;4.320;2024-01-15T14:02:20;7.45;;;1.65;;
10761;SDS011;5433;50.862;4.320;2024-01-15T14:04:46;5.22;;;1.90;;
10761;SDS011;5433;50.862;4.320;2024-01-15T14:07:12;4.40;;;1.52;;
10761;SDS011;5433;50.862;4.320;2024-01-15T14:09:38;3.22;;;1.27;;
10761;SDS011;5433;50.862;4.320;2024-01-15T14:12:04;4.38;;;1.30;;
10761;SDS011;5433;50.862;4.320;2024-01-15T14:14:31;5.05;;;1.40;;
10761;SDS011;5433;50.862;4.320;2024-01-15T14:16:58;10.20;;;1.75;;
10761;SDS011;5433;50.862;4.320;2024-01-15T14:19:24;5.22;;;1.60;;
10761;SDS011;5433;50.862;4.320;2024-01-15T14:21:50;5.18;;;1.65;;
10761;SDS011;5433;50.862;4.320;2024-01-15T14:24:16;3.88;;;1.30;;
10761;SDS011;5433;50.862;4.320;2024-01-15T14:26:42;4.63;;;1.50;;
10761;SDS011;5433;50.862;4.320;2024-01-15T14:29:08;5.35;;;1.25;;
10761;SDS011;5433;50.862;4.320;2024-01-15T14:31:34;5.90;;;1.52;;
10761;SDS011;5433;50.862;4.320;2024-01-15T14:34:00;6.72;;;3.47;;
10761;SDS011;5433;50.862;4.320;2024-01-15T14:36:29;2.63;;;1.15;;
10761;SDS011;5433;50.862;4.320;2024-01-15T14:38:55;3.75;;;1.33;;
10761;SDS011;5433;50.862;4.320;2024-01-15T14:41:21;3.80;;;1.60;;
10761;SDS011;5433;50.862;4.320;2024-01-15T14:43:47;3.80;;;1.50;;
10761;SDS011;5433;50.862;4.320;2024-01-15T14:46:13;8.15;;;3.55;;
10761;SDS011;5433;50.862;4.320;2024-01-15T14:48:39;4.32;;;1.33;;
10761;SDS011;5433;50.862;4.320;2024-01-15T14:51:05;6.85;;;3.92;;
10761;SDS011;5433;50.862;4.320;2024-01-15T14:53:31;4.28;;;1.67;;
10761;SDS011;5433;50.862;4.320;2024-01-15T14:55:57;2.10;;;1.20;;
10761;SDS011;5433;50.862;4.320;2024-01-15T14:58:24;3.28;;;1.23;;
10761;SDS011;5433;50.862;4.320;2024-01-15T15:00:50;4.03;;;1.05;;
10761;SDS011;5433;50.862;4.320;2024-01-15T15:03:16;3.70;;;1.20;;
10761;SDS011;5433;50.862;4.320;2024-01-15T15:05:42;2.60;;;1.08;;
10761;SDS011;5433;50.862;4.320;2024-01-15T15:08:08;4.53;;;1.27;;
10761;SDS011;5433;50.862;4.320;2024-01-15T15:10:37;2.83;;;1.00;;